Time;durP1;ratioP1;P1;durP2;ratioP2;P2;SDS_P1;SDS_P2;PMS_P1;PMS_P2;Temp;Humidity;BMP_temperature;BMP_pressure;BME280_temperature;BME280_humidity;BME280_pressure;Samples;Min_cycle;Max_cycle;Signal;HPM_P1;HPM_P2
2021/09/04 00:00:23;;;;;;;1.05;0.80;;;14.70;99.90;;;;;;4430250;32;20142;-79
2021/09/04 00:02:48;;;;;;;1.25;1.05;;;14.70;99.90;;;;;;4431470;32;20077;-78
2021/09/04 00:05:14;;;;;;;2.72;1.15;;;14.60;99.90;;;;;;4431728;32;20499;-78
2021/09/04 00:07:39;;;;;;;1.65;1.00;;;14.70;99.90;;;;;;4431766;32;20080;-79
2021/09/04 00:10:06;;;;;;;1.08;0.98;;;14.60;99.90;;;;;;4432013;32;20113;-79
2021/09/04 00:12:31;;;;;;;3.45;1.45;;;14.50;99.90;;;;;;4432208;32;20133;-79
2021/09/04 00:14:57;;;;;;;1.27;0.98;;;14.50;99.90;;;;;;4431355;32;20066;-79
2021/09/04 00:17:23;;;;;;;0.65;0.65;;;14.50;99.90;;;;;;4432241;32;20090;-79
2021/09/04 00:19:48;;;;;;;1.87;1.35;;;14.50;99.90;;;;;;4432188;32;20061;-79
2021/09/04 00:22:14;;;;;;;1.87;1.05;;;14.50;99.90;;;;;;4431722;32;20089;-79
2021/09/04 00:24:40;;;;;;;0.70;0.70;;;14.50;99.90;;;;;;4419083;32;20112;-80
2021/09/04 00:27:06;;;;;;;1.48;0.95;;;14.50;99.90;;;;;;4432565;32;20510;-80
2021/09/04 00:29:33;;;;;;;1.98;1.05;;;14.30;99.90;;;;;;4433199;32;20472;-79
2021/09/04 00:31:58;;;;;;;1.60;0.73;;;14.30;99.90;;;;;;4431756;32;20073;-79
2021/09/04 00:34:24;;;;;;;1.52;0.93;;;14.20;99.90;;;;;;4430999;32;20076;-79
2021/09/04 00:36:49;;;;;;;1.62;1.00;;;14.30;99.90;;;;;;4429108;32;20085;-79
2021/09/04 00:39:15;;;;;;;1.10;0.88;;;14.30;99.90;;;;;;4431214;32;20136;-78
2021/09/04 00:41:41;;;;;;;1.25;1.00;;;14.20;99.90;;;;;;4432349;32;20086;-79
2021/09/04 00:44:12;;;;;;;1.92;0.60;;;14.20;99.90;;;;;;4430940;32;20076;-79
2021/09/04 00:46:38;;;;;;;2.40;1.12;;;14.10;99.90;;;;;;4417521;32;20455;-79
2021/09/04 00:49:03;;;;;;;3.20;1.20;;;14.10;99.90;;;;;;4431338;32;20082;-79
2021/09/04 00:51:30;;;;;;;3.70;1.08;;;14.10;99.90;;;;;;4431480;32;20431;-80
2021/09/04 00:53:55;;;;;;;3.22;1.65;;;14.10;99.90;;;;;;4431481;32;20563;-78
2021/09/04 00:56:22;;;;;;;0.75;0.75;;;14.00;99.90;;;;;;4432095;32;20073;-79
2021/09/04 00:58:47;;;;;;;1.33;0.98;;;14.00;99.90;;;;;;4431899;32;20069;-80
2021/09/04 01:01:13;;;;;;;1.25;0.85;;;14.10;99.90;;;;;;4431387;32;20123;-79
2021/09/04 01:03:39;;;;;;;3.92;0.65;;;14.10;99.90;;;;;;4431133;32;20085;-80
2021/09/04 01:06:04;;;;;;;3.15;0.85;;;14.20;99.90;;;;;;4430635;32;20078;-79
2021/09/04 01:08:30;;;;;;;3.90;0.80;;;14.20;99.90;;;;;;4431929;32;20077;-80
2021/09/04 01:10:55;;;;;;;0.70;0.57;;;14.20;99.90;;;;;;4431758;32;20065;-80
2021/09/04 01:13:21;;;;;;;1.87;1.52;;;14.10;99.90;;;;;;4431703;32;20206;-80
2021/09/04 01:15:48;;;;;;;2.20;1.00;;;14.00;99.90;;;;;;4431178;32;20567;-79
2021/09/04 01:18:13;;;;;;;0.98;0.70;;;14.10;99.90;;;;;;4431992;32;20428;-79
2021/09/04 01:20:39;;;;;;;4.25;1.87;;;14.10;99.90;;;;;;4431501;32;20068;-79
2021/09/04 01:23:05;;;;;;;0.80;0.70;;;14.10;99.90;;;;;;4431403;32;20070;-79
2021/09/04 01:25:32;;;;;;;1.95;0.77;;;14.00;99.90;;;;;;4430317;32;20261;-79
2021/09/04 01:28:00;;;;;;;7.45;1.40;;;14.00;99.90;;;;;;4431408;32;20065;-80
2021/09/04 01:30:26;;;;;;;0.70;0.70;;;14.00;99.90;;;;;;4429135;32;20200;-79
2021/09/04 01:32:52;;;;;;;0.85;0.85;;;14.00;99.90;;;;;;4430286;32;20064;-78
2021/09/04 01:35:22;;;;;;;0.57;0.57;;;14.00;99.90;;;;;;4424773;32;20074;-78
2021/09/04 01:37:47;;;;;;;1.58;0.80;;;13.90;99.90;;;;;;4431153;32;20065;-78
2021/09/04 01:40:14;;;;;;;1.35;0.73;;;13.90;99.90;;;;;;4432168;32;20065;-79
2021/09/04 01:42:43;;;;;;;0.40;0.40;;;13.90;99.90;;;;;;4430479;32;20425;-78
2021/09/04 01:45:09;;;;;;;3.40;1.02;;;13.80;99.90;;;;;;4430494;32;20078;-79
2021/09/04 01:47:35;;;;;;;1.35;0.77;;;13.70;99.90;;;;;;4431041;32;20160;-79
2021/09/04 01:50:01;;;;;;;4.40;1.00;;;13.70;99.90;;;;;;4430798;32;20498;-79
2021/09/04 01:52:27;;;;;;;12.13;1.12;;;13.70;99.90;;;;;;4430796;32;20069;-78
2021/09/04 01:54:52;;;;;;;1.67;1.12;;;13.70;99.90;;;;;;4431839;32;20078;-80
2021/09/04 01:57:19;;;;;;;1.10;0.82;;;13.80;99.90;;;;;;4431090;32;20065;-80
2021/09/04 01:59:46;;;;;;;0.50;0.50;;;13.80;99.90;;;;;;4430292;32;20074;-79
2021/09/04 02:02:13;;;;;;;1.83;0.90;;;13.90;99.90;;;;;;4429973;32;20098;-78
2021/09/04 02:04:38;;;;;;;2.85;1.08;;;13.90;99.90;;;;;;4430458;32;20439;-79
2021/09/04 02:07:04;;;;;;;4.90;1.08;;;13.90;99.90;;;;;;4430191;32;20127;-79
2021/09/04 02:09:31;;;;;;;1.62;1.17;;;13.80;99.90;;;;;;4430307;32;20086;-79
2021/09/04 02:11:57;;;;;;;3.62;1.05;;;13.80;99.90;;;;;;4431606;32;20077;-79
2021/09/04 02:14:23;;;;;;;2.05;1.30;;;13.90;99.90;;;;;;4429668;32;20070;-79
2021/09/04 02:16:49;;;;;;;1.80;0.95;;;13.90;99.90;;;;;;4429969;32;20403;-79
2021/09/04 02:19:14;;;;;;;3.83;1.70;;;13.80;99.90;;;;;;4430756;32;20124;-80
2021/09/04 02:21:40;;;;;;;1.83;1.08;;;13.80;99.90;;;;;;4416984;32;20085;-79
2021/09/04 02:24:06;;;;;;;0.65;0.65;;;13.90;99.90;;;;;;4429938;32;20066;-78
2021/09/04 02:26:31;;;;;;;3.20;1.17;;;13.90;99.90;;;;;;4430748;32;20070;-80
2021/09/04 02:28:58;;;;;;;2.53;0.93;;;13.90;99.90;;;;;;4430327;32;20094;-80
2021/09/04 02:31:24;;;;;;;3.67;0.90;;;13.80;99.90;;;;;;4431310;32;20069;-79
2021/09/04 02:33:52;;;;;;;0.60;0.60;;;13.80;99.90;;;;;;4429669;32;20078;-79
2021/09/04 02:36:18;;;;;;;10.63;1.67;;;13.80;99.90;;;;;;4429248;32;20127;-79
2021/09/04 02:38:43;;;;;;;3.62;1.12;;;13.90;99.90;;;;;;4430060;32;20127;-79
2021/09/04 02:41:10;;;;;;;0.95;0.77;;;13.90;99.90;;;;;;4430529;32;20081;-80
2021/09/04 02:43:35;;;;;;;1.08;0.98;;;13.90;99.90;;;;;;4431014;32;20116;-80
2021/09/04 02:46:02;;;;;;;3.03;1.15;;;13.80;99.90;;;;;;4430024;32;20084;-79
2021/09/04 02:48:27;;;;;;;1.92;1.17;;;13.80;99.90;;;;;;4430530;32;20089;-79
2021/09/04 02:50:53;;;;;;;1.87;1.08;;;13.80;99.90;;;;;;4429933;32;20097;-79
2021/09/04 02:53:18;;;;;;;1.40;0.98;;;13.70;99.90;;;;;;4430335;32;20124;-79
2021/09/04 02:55:44;;;;;;;1.48;0.75;;;13.60;99.90;;;;;;4415778;32;20531;-79
2021/09/04 02:58:09;;;;;;;2.87;0.93;;;13.50;99.90;;;;;;4430263;32;20073;-79
2021/09/04 03:00:35;;;;;;;1.90;1.20;;;13.60;99.90;;;;;;4429721;32;20120;-79
2021/09/04 03:03:00;;;;;;;1.58;1.35;;;13.60;99.90;;;;;;4429547;32;20081;-79
2021/09/04 03:05:26;;;;;;;4.07;1.33;;;13.60;99.90;;;;;;4430401;32;20073;-79
2021/09/04 03:07:52;;;;;;;0.88;0.70;;;13.70;99.90;;;;;;4430371;32;20077;-80
2021/09/04 03:10:18;;;;;;;3.53;1.27;;;13.60;99.90;;;;;;4430123;32;20073;-79
2021/09/04 03:12:44;;;;;;;1.05;0.82;;;13.50;99.90;;;;;;4429687;32;20053;-80
2021/09/04 03:15:10;;;;;;;1.95;1.15;;;13.60;99.90;;;;;;4427459;32;20089;-79
2021/09/04 03:17:35;;;;;;;1.85;0.77;;;13.60;99.90;;;;;;4426523;32;20115;-79
2021/09/04 03:20:01;;;;;;;1.20;1.10;;;13.60;99.90;;;;;;4430205;32;20069;-81
2021/09/04 03:22:26;;;;;;;1.48;0.90;;;13.50;99.90;;;;;;4430530;32;20074;-80
2021/09/04 03:24:52;;;;;;;26.60;1.23;;;13.60;99.90;;;;;;4429483;32;20098;-79
2021/09/04 03:27:17;;;;;;;2.83;1.52;;;13.70;99.90;;;;;;4429524;32;20069;-78
2021/09/04 03:29:43;;;;;;;1.10;1.00;;;13.80;99.90;;;;;;4429973;32;20101;-79
2021/09/04 03:32:08;;;;;;;0.90;0.90;;;13.70;99.90;;;;;;4430695;32;20425;-78
2021/09/04 03:34:34;;;;;;;23.77;1.50;;;13.80;99.90;;;;;;4429511;32;20065;-78
2021/09/04 03:36:59;;;;;;;1.85;1.15;;;13.80;99.90;;;;;;4431210;32;20123;-79
2021/09/04 03:39:25;;;;;;;5.62;2.25;;;13.70;99.90;;;;;;4432145;32;20065;-79
2021/09/04 03:41:50;;;;;;;3.22;1.23;;;13.70;99.90;;;;;;4431965;32;20073;-79
2021/09/04 03:44:16;;;;;;;2.33;1.33;;;13.70;99.90;;;;;;4431513;32;20213;-79
2021/09/04 03:46:42;;;;;;;1.00;0.95;;;13.80;99.90;;;;;;4432466;32;20073;-79
2021/09/04 03:49:07;;;;;;;3.22;1.00;;;13.90;99.90;;;;;;4432139;32;20155;-77
2021/09/04 03:51:33;;;;;;;4.37;1.52;;;13.80;99.90;;;;;;4430873;32;20405;-77
2021/09/04 03:53:59;;;;;;;2.20;1.20;;;13.90;99.90;;;;;;4430165;32;20097;-77
2021/09/04 03:56:25;;;;;;;1.98;1.20;;;13.90;99.90;;;;;;4430434;32;20072;-77
2021/09/04 03:58:50;;;;;;;3.30;1.25;;;13.90;99.90;;;;;;4430792;32;20116;-77
2021/09/04 04:01:17;;;;;;;23.62;1.80;;;13.80;99.90;;;;;;4430311;32;20507;-77
2021/09/04 04:03:42;;;;;;;0.82;0.70;;;13.80;99.90;;;;;;4430342;32;20534;-77
2021/09/04 04:06:08;;;;;;;5.00;2.08;;;13.90;99.90;;;;;;4430002;32;20120;-77
2021/09/04 04:08:33;;;;;;;6.43;0.85;;;13.80;99.90;;;;;;4431009;32;20457;-77
2021/09/04 04:11:07;;;;;;;3.30;1.12;;;13.70;99.90;;;;;;4430313;32;20134;-76
2021/09/04 04:13:33;;;;;;;2.15;1.25;;;13.60;99.90;;;;;;4426805;32;20086;-78
2021/09/04 04:15:58;;;;;;;2.50;0.60;;;13.50;99.90;;;;;;4431294;32;20061;-78
2021/09/04 04:18:24;;;;;;;1.85;0.85;;;13.60;99.90;;;;;;4432735;32;20081;-78
2021/09/04 04:20:49;;;;;;;2.50;0.95;;;13.50;99.90;;;;;;4430934;32;20066;-78
2021/09/04 04:23:15;;;;;;;1.62;1.00;;;13.50;99.90;;;;;;4431891;32;20171;-78
2021/09/04 04:25:40;;;;;;;2.10;0.88;;;13.40;99.90;;;;;;4431568;32;20081;-78
2021/09/04 04:28:06;;;;;;;1.25;0.95;;;13.40;99.90;;;;;;4430997;32;20069;-78
2021/09/04 04:30:31;;;;;;;0.68;0.68;;;13.50;99.90;;;;;;4430987;32;20120;-78
2021/09/04 04:32:57;;;;;;;1.45;0.60;;;13.40;99.90;;;;;;4430722;32;20517;-78
2021/09/04 04:35:22;;;;;;;2.28;0.65;;;13.40;99.90;;;;;;4424400;32;20086;-78
2021/09/04 04:37:48;;;;;;;1.30;0.60;;;13.40;99.90;;;;;;4426268;32;20119;-78
2021/09/04 04:40:13;;;;;;;2.80;1.02;;;13.40;99.90;;;;;;4431367;32;20061;-78
2021/09/04 04:42:39;;;;;;;4.60;0.85;;;13.40;99.90;;;;;;4430110;32;20141;-78
2021/09/04 04:45:06;;;;;;;1.42;0.88;;;13.50;99.90;;;;;;4430584;32;20074;-79
2021/09/04 04:47:32;;;;;;;1.55;0.90;;;13.50;99.90;;;;;;4429959;32;20084;-78
2021/09/04 04:49:58;;;;;;;3.97;0.93;;;13.40;99.90;;;;;;4430981;32;20124;-78
2021/09/04 04:52:24;;;;;;;3.05;0.65;;;13.40;99.90;;;;;;4430306;32;20074;-78
2021/09/04 04:54:50;;;;;;;2.50;1.23;;;13.30;99.90;;;;;;4430144;32;20116;-78
2021/09/04 04:57:15;;;;;;;1.67;0.75;;;13.30;99.90;;;;;;4430538;32;20072;-78
2021/09/04 04:59:41;;;;;;;1.35;0.77;;;13.30;99.90;;;;;;4430188;32;20128;-77
2021/09/04 05:02:06;;;;;;;0.98;0.82;;;13.20;99.90;;;;;;4430453;32;20087;-78
2021/09/04 05:04:32;;;;;;;4.10;1.23;;;13.30;99.90;;;;;;4430675;32;20077;-78
2021/09/04 05:06:58;;;;;;;0.85;0.80;;;13.30;99.90;;;;;;4430441;32;20442;-78
2021/09/04 05:09:23;;;;;;;3.00;1.00;;;13.30;99.90;;;;;;4430296;32;20130;-78
2021/09/04 05:11:48;;;;;;;2.17;1.05;;;13.40;99.90;;;;;;4430459;32;20090;-78
2021/09/04 05:14:14;;;;;;;3.65;0.80;;;13.40;99.90;;;;;;4429661;32;20077;-78
2021/09/04 05:16:39;;;;;;;0.77;0.77;;;13.50;99.90;;;;;;4430503;32;21216;-78
2021/09/04 05:19:05;;;;;;;1.02;0.90;;;13.50;99.90;;;;;;4431315;32;20073;-78
2021/09/04 05:21:30;;;;;;;0.60;0.60;;;13.60;99.90;;;;;;4430701;32;20085;-78
2021/09/04 05:23:56;;;;;;;0.50;0.50;;;13.60;99.90;;;;;;4430872;32;20081;-78
2021/09/04 05:26:22;;;;;;;0.70;0.70;;;13.50;99.90;;;;;;4432078;32;20082;-78
2021/09/04 05:28:47;;;;;;;7.57;1.92;;;13.50;99.90;;;;;;4430809;32;20065;-78
2021/09/04 05:31:13;;;;;;;1.20;0.77;;;13.50;99.90;;;;;;4430882;32;20073;-78
2021/09/04 05:33:38;;;;;;;5.75;1.10;;;13.60;99.90;;;;;;4430888;32;20057;-78
2021/09/04 05:36:04;;;;;;;0.80;0.80;;;13.60;99.90;;;;;;4424158;32;20132;-79
2021/09/04 05:38:29;;;;;;;0.57;0.57;;;13.70;99.90;;;;;;4431578;32;20061;-78
2021/09/04 05:40:55;;;;;;;1.12;1.02;;;13.80;99.90;;;;;;4431325;32;20170;-78
2021/09/04 05:43:21;;;;;;;0.68;0.52;;;13.70;99.90;;;;;;4430511;32;20068;-78
2021/09/04 05:45:47;;;;;;;3.15;0.52;;;13.70;99.90;;;;;;4430963;32;20077;-78
2021/09/04 05:48:13;;;;;;;0.95;0.55;;;13.70;99.90;;;;;;4431160;32;20065;-78
2021/09/04 05:50:38;;;;;;;2.45;0.80;;;13.70;99.90;;;;;;4431080;32;20073;-79
2021/09/04 05:53:04;;;;;;;0.60;0.60;;;13.70;99.90;;;;;;4431922;32;20057;-78
2021/09/04 05:55:29;;;;;;;1.30;0.50;;;13.70;99.90;;;;;;4431843;32;20551;-78
2021/09/04 05:57:55;;;;;;;0.68;0.60;;;13.70;99.90;;;;;;4431392;32;20077;-78
2021/09/04 06:00:20;;;;;;;0.88;0.62;;;13.70;99.90;;;;;;4430597;32;20085;-78
2021/09/04 06:02:46;;;;;;;1.35;0.62;;;13.70;99.90;;;;;;4430634;32;20066;-79
2021/09/04 06:05:11;;;;;;;1.08;0.98;;;13.80;99.90;;;;;;4431489;32;20069;-78
2021/09/04 06:07:37;;;;;;;1.40;0.77;;;13.70;99.90;;;;;;4431996;32;20085;-78
2021/09/04 06:10:03;;;;;;;1.08;0.70;;;13.90;99.90;;;;;;4431033;32;20072;-78
2021/09/04 06:12:29;;;;;;;1.45;0.73;;;13.90;99.90;;;;;;4430916;32;20112;-78
2021/09/04 06:14:54;;;;;;;2.00;0.77;;;13.90;99.90;;;;;;4430962;32;20089;-78
2021/09/04 06:17:19;;;;;;;1.42;0.93;;;13.80;99.90;;;;;;4432128;32;20185;-78
2021/09/04 06:19:45;;;;;;;0.40;0.40;;;13.80;99.90;;;;;;4432240;32;20369;-79
2021/09/04 06:22:10;;;;;;;0.57;0.55;;;13.80;99.90;;;;;;4431821;32;20073;-78
2021/09/04 06:24:36;;;;;;;0.60;0.55;;;13.70;99.90;;;;;;4428155;32;92949;-78
2021/09/04 06:27:02;;;;;;;3.00;1.08;;;13.70;99.90;;;;;;4430399;32;20082;-78
2021/09/04 06:29:27;;;;;;;3.35;0.90;;;13.70;99.90;;;;;;4430354;32;20069;-78
2021/09/04 06:31:53;;;;;;;3.50;1.12;;;13.70;99.90;;;;;;4430365;32;20495;-79
2021/09/04 06:34:18;;;;;;;1.20;0.77;;;13.80;99.90;;;;;;4430364;32;20082;-78
2021/09/04 06:36:44;;;;;;;1.00;0.57;;;13.90;99.90;;;;;;4430639;32;20077;-78
2021/09/04 06:39:09;;;;;;;0.68;0.50;;;13.90;99.90;;;;;;4430934;32;20069;-79
2021/09/04 06:41:35;;;;;;;1.62;1.02;;;13.90;99.90;;;;;;4430091;32;20412;-78
2021/09/04 06:44:00;;;;;;;1.30;0.62;;;13.90;99.90;;;;;;4430264;32;20074;-78
2021/09/04 06:46:26;;;;;;;0.75;0.60;;;14.00;99.90;;;;;;4429699;32;20120;-78
2021/09/04 06:48:51;;;;;;;2.17;0.62;;;14.10;99.90;;;;;;4430010;32;20086;-78
2021/09/04 06:51:18;;;;;;;0.75;0.60;;;14.00;99.90;;;;;;4430254;32;20072;-78
2021/09/04 06:53:43;;;;;;;1.42;0.60;;;14.10;99.90;;;;;;4429744;32;20069;-78
2021/09/04 06:56:09;;;;;;;1.35;0.98;;;14.10;99.90;;;;;;4429921;32;20074;-77
2021/09/04 06:58:35;;;;;;;2.05;0.93;;;14.10;99.90;;;;;;4430054;32;20145;-78
2021/09/04 07:01:00;;;;;;;6.15;1.02;;;14.10;99.90;;;;;;4429263;32;20134;-80
2021/09/04 07:03:26;;;;;;;0.50;0.50;;;14.10;99.90;;;;;;4429616;32;20675;-78
2021/09/04 07:05:52;;;;;;;1.40;1.02;;;14.10;99.90;;;;;;4429852;32;20081;-78
2021/09/04 07:08:17;;;;;;;3.97;0.98;;;14.10;99.90;;;;;;4429451;32;20113;-78
2021/09/04 07:10:43;;;;;;;2.47;0.85;;;14.20;99.90;;;;;;4431246;32;20072;-78
2021/09/04 07:13:08;;;;;;;1.40;0.85;;;14.30;99.90;;;;;;4432851;32;20073;-78
2021/09/04 07:15:34;;;;;;;1.02;0.90;;;14.30;99.90;;;;;;4431878;32;20077;-78
2021/09/04 07:17:59;;;;;;;0.30;0.30;;;14.40;99.90;;;;;;4432999;32;20510;-78
2021/09/04 07:20:25;;;;;;;2.25;1.02;;;14.40;99.90;;;;;;4433547;32;20471;-79
2021/09/04 07:22:50;;;;;;;0.68;0.57;;;14.40;99.90;;;;;;4433117;32;20164;-79
2021/09/04 07:25:16;;;;;;;1.45;0.85;;;14.40;99.90;;;;;;4434364;32;20081;-78
2021/09/04 07:27:43;;;;;;;1.55;1.05;;;14.40;99.90;;;;;;4433390;32;20499;-79
2021/09/04 07:30:09;;;;;;;0.70;0.60;;;14.40;99.90;;;;;;4432868;32;20119;-79
2021/09/04 07:32:34;;;;;;;1.05;0.88;;;14.40;99.90;;;;;;4433019;32;20575;-79
2021/09/04 07:35:00;;;;;;;1.27;0.77;;;14.40;99.90;;;;;;4429681;32;20066;-78
2021/09/04 07:37:26;;;;;;;0.80;0.62;;;14.40;99.90;;;;;;4432312;32;20066;-79
2021/09/04 07:39:51;;;;;;;0.60;0.60;;;14.40;99.90;;;;;;4434552;32;20070;-80
2021/09/04 07:42:17;;;;;;;0.60;0.60;;;14.40;99.90;;;;;;4433801;32;20077;-79
2021/09/04 07:44:43;;;;;;;1.20;1.00;;;14.40;99.90;;;;;;4432841;32;20066;-79
2021/09/04 07:47:08;;;;;;;8.48;2.00;;;14.50;99.90;;;;;;4434260;32;20086;-80
2021/09/04 07:49:34;;;;;;;2.97;1.12;;;14.50;99.90;;;;;;4433533;32;20101;-80
2021/09/04 07:51:59;;;;;;;2.45;0.73;;;14.50;99.90;;;;;;4433477;32;20068;-80
2021/09/04 07:54:25;;;;;;;2.10;0.73;;;14.50;99.90;;;;;;4433527;32;20445;-77
2021/09/04 07:56:50;;;;;;;0.45;0.40;;;14.50;99.90;;;;;;4432517;32;20074;-80
2021/09/04 07:59:16;;;;;;;2.25;0.88;;;14.50;99.90;;;;;;4433192;32;20124;-80
2021/09/04 08:01:41;;;;;;;1.55;0.88;;;14.50;99.90;;;;;;4431532;32;20380;-77
2021/09/04 08:04:07;;;;;;;1.65;0.77;;;14.60;99.90;;;;;;4430897;32;20130;-78
2021/09/04 08:06:32;;;;;;;0.62;0.62;;;14.50;99.90;;;;;;4431514;32;20061;-78
2021/09/04 08:08:58;;;;;;;1.80;0.93;;;14.50;99.90;;;;;;4431166;32;20065;-77
2021/09/04 08:11:23;;;;;;;0.75;0.68;;;14.60;99.90;;;;;;4430863;32;20144;-78
2021/09/04 08:13:51;;;;;;;8.20;1.10;;;14.60;99.90;;;;;;4431829;32;20505;-78
2021/09/04 08:16:16;;;;;;;0.50;0.50;;;14.70;99.90;;;;;;4431283;32;20065;-78
2021/09/04 08:18:43;;;;;;;4.53;1.37;;;14.80;99.90;;;;;;4430838;32;20128;-78
2021/09/04 08:21:08;;;;;;;1.12;0.70;;;14.80;99.90;;;;;;4430485;32;20564;-78
2021/09/04 08:23:33;;;;;;;2.97;1.15;;;14.70;99.90;;;;;;4431048;32;20086;-78
2021/09/04 08:25:59;;;;;;;5.90;0.85;;;14.80;99.90;;;;;;4431319;32;20057;-78
2021/09/04 08:28:24;;;;;;;2.30;1.48;;;14.80;99.90;;;;;;4431285;32;20069;-78
2021/09/04 08:30:51;;;;;;;1.15;1.00;;;14.70;99.90;;;;;;4430816;32;20415;-78
2021/09/04 08:33:16;;;;;;;0.88;0.62;;;14.80;99.90;;;;;;4431420;32;20425;-79
2021/09/04 08:35:42;;;;;;;0.70;0.70;;;14.90;99.90;;;;;;4430896;32;20125;-78
2021/09/04 08:38:07;;;;;;;0.98;0.62;;;15.00;99.90;;;;;;4432476;32;20140;-79
2021/09/04 08:40:40;;;;;;;1.75;1.10;;;15.00;99.90;;;;;;4432108;32;20086;-78
2021/09/04 08:43:06;;;;;;;1.23;1.12;;;15.10;99.90;;;;;;4431293;32;20086;-79
2021/09/04 08:45:31;;;;;;;1.20;0.65;;;15.10;99.90;;;;;;4431863;32;20066;-79
2021/09/04 08:48:00;;;;;;;2.22;1.00;;;15.00;99.90;;;;;;4431685;32;20424;-79
2021/09/04 08:50:26;;;;;;;3.12;1.25;;;15.10;99.90;;;;;;4431853;32;20069;-78
2021/09/04 08:52:52;;;;;;;0.57;0.47;;;15.10;99.90;;;;;;4432045;32;20073;-79
2021/09/04 08:55:17;;;;;;;0.55;0.55;;;15.20;99.90;;;;;;4431230;32;20574;-78
2021/09/04 08:57:43;;;;;;;4.50;0.73;;;15.20;99.90;;;;;;4431375;32;20077;-78
2021/09/04 09:00:09;;;;;;;1.30;0.90;;;15.20;99.90;;;;;;4431454;32;20065;-79
2021/09/04 09:02:34;;;;;;;1.55;0.95;;;15.10;99.90;;;;;;4431525;32;20069;-79
2021/09/04 09:05:04;;;;;;;3.60;0.70;;;15.20;99.90;;;;;;4431880;32;20464;-79
2021/09/04 09:07:47;;;;;;;1.55;1.00;;;15.20;99.90;;;;;;4430984;32;20078;-78
2021/09/04 09:10:32;;;;;;;4.22;1.02;;;15.10;99.90;;;;;;4432208;32;20061;-79
2021/09/04 09:12:57;;;;;;;0.95;0.80;;;15.20;99.90;;;;;;4430456;32;20503;-78
2021/09/04 09:15:25;;;;;;;3.03;0.70;;;15.30;99.90;;;;;;4433062;32;20069;-78
2021/09/04 09:18:06;;;;;;;2.30;1.00;;;15.20;99.90;;;;;;4432441;32;20116;-78
2021/09/04 09:20:32;;;;;;;17.17;1.12;;;15.20;99.90;;;;;;4431584;32;20066;-79
2021/09/04 09:23:06;;;;;;;4.57;1.05;;;15.20;99.90;;;;;;4431803;32;20074;-79
2021/09/04 09:25:33;;;;;;;2.22;0.98;;;15.20;99.90;;;;;;4431492;32;20058;-79
2021/09/04 09:28:11;;;;;;;1.00;0.95;;;15.20;99.90;;;;;;4431744;32;20142;-79
2021/09/04 09:30:40;;;;;;;10.82;1.12;;;15.30;99.90;;;;;;4431987;32;20090;-79
2021/09/04 09:33:07;;;;;;;1.92;0.62;;;15.40;99.90;;;;;;4430602;32;20110;-79
2021/09/04 09:35:35;;;;;;;4.05;1.17;;;15.60;99.90;;;;;;4428010;32;20112;-79
2021/09/04 09:38:03;;;;;;;0.50;0.50;;;15.60;99.90;;;;;;4431546;32;20085;-79
2021/09/04 09:40:29;;;;;;;0.80;0.62;;;15.50;99.90;;;;;;4431685;32;20065;-80
2021/09/04 09:42:55;;;;;;;1.45;0.93;;;15.60;99.90;;;;;;4430452;32;20078;-79
2021/09/04 09:45:43;;;;;;;0.45;0.45;;;15.70;99.90;;;;;;4431261;32;20065;-79
2021/09/04 09:48:09;;;;;;;4.12;1.20;;;15.60;99.90;;;;;;4416695;32;20077;-80
2021/09/04 09:50:36;;;;;;;3.30;1.12;;;15.60;99.90;;;;;;4431621;32;20486;-80
2021/09/04 09:53:03;;;;;;;2.60;1.20;;;15.60;99.90;;;;;;4432312;32;20073;-79
2021/09/04 09:55:29;;;;;;;0.57;0.57;;;15.60;99.90;;;;;;4431941;32;20061;-81
2021/09/04 09:57:58;;;;;;;1.08;0.45;;;15.60;99.90;;;;;;4431511;32;20396;-80
2021/09/04 10:00:26;;;;;;;1.20;0.68;;;15.70;99.90;;;;;;4431003;32;20094;-81
2021/09/04 10:02:53;;;;;;;1.23;0.55;;;15.70;99.90;;;;;;4417170;32;20081;-80
2021/09/04 10:05:24;;;;;;;0.65;0.65;;;15.80;99.90;;;;;;4431236;32;20533;-79
2021/09/04 10:07:53;;;;;;;9.63;0.55;;;15.80;99.90;;;;;;4432116;32;20084;-80
2021/09/04 10:10:20;;;;;;;6.43;1.50;;;15.90;99.90;;;;;;4431580;32;20077;-80
2021/09/04 10:12:48;;;;;;;1.70;0.77;;;15.90;99.90;;;;;;4430213;32;20100;-78
2021/09/04 10:15:13;;;;;;;1.10;0.52;;;16.00;99.90;;;;;;4430814;32;20061;-80
2021/09/04 10:17:40;;;;;;;1.27;0.55;;;16.00;99.90;;;;;;4431421;32;20487;-79
2021/09/04 10:20:07;;;;;;;0.88;0.55;;;16.10;99.90;;;;;;4431376;32;20072;-79
2021/09/04 10:22:33;;;;;;;10.23;1.20;;;16.20;99.90;;;;;;4431578;32;20061;-80
2021/09/04 10:25:02;;;;;;;1.42;0.85;;;16.10;99.90;;;;;;4432537;32;20066;-79
2021/09/04 10:27:32;;;;;;;2.72;1.23;;;16.10;99.90;;;;;;4417144;32;20120;-80
2021/09/04 10:29:58;;;;;;;9.32;1.12;;;16.10;99.90;;;;;;4416806;32;20081;-80
2021/09/04 10:32:25;;;;;;;3.22;0.88;;;16.30;99.90;;;;;;4431354;32;20134;-79
2021/09/04 10:35:06;;;;;;;0.82;0.73;;;16.30;99.90;;;;;;4427849;32;20069;-80
2021/09/04 10:37:43;;;;;;;1.48;1.08;;;16.30;99.90;;;;;;4425425;32;20065;-79
2021/09/04 10:40:10;;;;;;;2.83;1.48;;;16.20;99.90;;;;;;4431126;32;20064;-80
2021/09/04 10:42:41;;;;;;;6.80;1.27;;;16.20;99.90;;;;;;4430503;32;20115;-80
2021/09/04 10:45:15;;;;;;;8.40;0.70;;;16.20;99.90;;;;;;4430551;32;20073;-80
2021/09/04 10:47:56;;;;;;;0.95;0.52;;;16.30;99.90;;;;;;4429833;32;20085;-80
2021/09/04 10:50:25;;;;;;;0.93;0.70;;;16.30;99.90;;;;;;4430513;32;20420;-78
2021/09/04 10:52:56;;;;;;;2.75;1.02;;;16.30;99.90;;;;;;4430746;32;20140;-79
2021/09/04 10:55:25;;;;;;;5.93;1.02;;;16.40;99.90;;;;;;4430797;32;20148;-79
2021/09/04 10:57:53;;;;;;;0.70;0.70;;;16.40;99.90;;;;;;4430772;32;20077;-79
2021/09/04 11:00:24;;;;;;;2.65;1.20;;;16.30;99.90;;;;;;4430317;32;20069;-79
2021/09/04 11:03:01;;;;;;;0.75;0.75;;;16.30;99.90;;;;;;4416713;32;20177;-78
2021/09/04 11:05:37;;;;;;;1.52;0.88;;;16.40;99.90;;;;;;4430377;32;20090;-78
2021/09/04 11:08:06;;;;;;;3.72;0.80;;;16.30;99.90;;;;;;4430345;32;20124;-79
2021/09/04 11:10:32;;;;;;;1.08;0.65;;;16.30;99.90;;;;;;4431110;32;20085;-79
2021/09/04 11:13:17;;;;;;;2.08;1.05;;;16.40;99.90;;;;;;4430064;32;20076;-79
2021/09/04 11:15:44;;;;;;;1.37;1.05;;;16.40;99.90;;;;;;4431470;32;20061;-79
2021/09/04 11:18:12;;;;;;;2.12;1.05;;;16.50;99.90;;;;;;4430774;32;20065;-78
2021/09/04 11:20:46;;;;;;;1.08;0.88;;;16.50;99.90;;;;;;4430827;32;20066;-79
2021/09/04 11:23:21;;;;;;;2.53;1.35;;;16.50;99.90;;;;;;4430897;32;20097;-79
2021/09/04 11:25:47;;;;;;;1.12;1.05;;;16.60;99.90;;;;;;4430717;32;20093;-79
2021/09/04 11:28:12;;;;;;;1.83;1.48;;;16.60;99.90;;;;;;4430953;32;20443;-79
2021/09/04 11:30:49;;;;;;;0.60;0.60;;;16.60;99.90;;;;;;4429756;32;20078;-79
2021/09/04 11:33:15;;;;;;;0.85;0.73;;;16.60;99.90;;;;;;4430116;32;20144;-79
2021/09/04 11:35:48;;;;;;;3.80;1.37;;;16.70;99.90;;;;;;4429418;32;20077;-79
2021/09/04 11:38:14;;;;;;;0.52;0.52;;;16.80;99.90;;;;;;4430309;32;20065;-79
2021/09/04 11:40:39;;;;;;;0.85;0.80;;;16.80;99.90;;;;;;4431089;32;20520;-79
2021/09/04 11:43:06;;;;;;;3.40;0.88;;;16.90;99.90;;;;;;4429687;32;20077;-79
2021/09/04 11:45:33;;;;;;;11.02;0.88;;;16.80;99.90;;;;;;4429678;32;20073;-79
2021/09/04 11:48:05;;;;;;;1.60;1.05;;;16.90;99.90;;;;;;4431039;32;20096;-79
2021/09/04 11:50:32;;;;;;;1.05;0.88;;;16.90;99.90;;;;;;4430568;32;20463;-80
2021/09/04 11:53:08;;;;;;;0.80;0.80;;;16.80;99.90;;;;;;4429615;32;20105;-79
2021/09/04 11:55:34;;;;;;;0.98;0.47;;;16.80;99.90;;;;;;4430194;32;20069;-79
2021/09/04 11:58:03;;;;;;;4.70;0.82;;;16.90;99.90;;;;;;4432877;32;20150;-79
2021/09/04 12:00:32;;;;;;;1.05;0.95;;;16.80;99.90;;;;;;4432183;32;20392;-79
2021/09/04 12:03:01;;;;;;;5.80;0.98;;;16.80;99.90;;;;;;4433600;32;20076;-79
2021/09/04 12:05:29;;;;;;;1.20;0.80;;;16.80;99.90;;;;;;4432314;32;20065;-79
2021/09/04 12:08:00;;;;;;;1.00;0.75;;;16.80;99.90;;;;;;4431900;32;20381;-79
2021/09/04 12:10:27;;;;;;;2.20;0.85;;;16.80;99.90;;;;;;4433257;32;20069;-80
2021/09/04 12:12:58;;;;;;;0.60;0.60;;;16.80;99.90;;;;;;4431407;32;20073;-79
2021/09/04 12:15:24;;;;;;;1.83;0.80;;;16.80;99.90;;;;;;4432676;32;20145;-79
2021/09/04 12:17:56;;;;;;;1.83;1.42;;;16.70;99.90;;;;;;4433402;32;20093;-79
2021/09/04 12:20:31;;;;;;;0.82;0.82;;;16.80;99.90;;;;;;4432623;32;20077;-79
2021/09/04 12:23:00;;;;;;;0.60;0.60;;;16.90;99.90;;;;;;4432856;32;20065;-79
2021/09/04 12:25:30;;;;;;;1.58;0.82;;;16.90;99.90;;;;;;4432976;32;20077;-79
2021/09/04 12:27:59;;;;;;;0.80;0.80;;;17.00;99.90;;;;;;4433700;32;20062;-79
2021/09/04 12:30:24;;;;;;;1.58;1.20;;;17.10;99.90;;;;;;4431690;32;20090;-79
2021/09/04 12:33:01;;;;;;;2.00;0.98;;;17.10;99.90;;;;;;4431667;32;20073;-79
2021/09/04 12:35:46;;;;;;;16.25;3.30;;;17.20;99.90;;;;;;4428903;32;20077;-79
2021/09/04 12:38:22;;;;;;;0.65;0.65;;;17.20;99.90;;;;;;4431608;32;20078;-79
2021/09/04 12:41:07;;;;;;;0.77;0.73;;;17.30;99.90;;;;;;4432310;32;20465;-79
2021/09/04 12:43:51;;;;;;;0.77;0.77;;;17.50;99.90;;;;;;4432810;32;20424;-79